sensor_id;sensor_type;location;lat;lon;timestamp;temperature;humidity
37410;DHT22;23275;48.914;12.566;2023-04-28T00:00:28;7.30;99.90
37410;DHT22;23275;48.914;12.566;2023-04-28T00:02:53;7.40;99.90
37410;DHT22;23275;48.914;12.566;2023-04-28T00:05:19;7.40;99.90
37410;DHT22;23275;48.914;12.566;2023-04-28T00:07:47;7.40;99.90
37410;DHT22;23275;48.914;12.566;2023-04-28T00:10:13;7.40;99.90
37410;DHT22;23275;48.914;12.566;2023-04-28T00:12:39;7.50;99.90
37410;DHT22;23275;48.914;12.566;2023-04-28T00:15:05;7.50;99.90
37410;DHT22;23275;48.914;12.566;2023-04-28T00:17:31;7.50;99.90
37410;DHT22;23275;48.914;12.566;2023-04-28T00:19:56;7.60;99.90
37410;DHT22;23275;48.914;12.566;2023-04-28T00:22:22;7.60;99.90
37410;DHT22;23275;48.914;12.566;2023-04-28T00:24:47;7.60;99.90
37410;DHT22;23275;48.914;12.566;2023-04-28T00:27:13;7.60;99.90
37410;DHT22;23275;48.914;12.566;2023-04-28T00:29:39;7.70;99.90
37410;DHT22;23275;48.914;12.566;2023-04-28T00:32:04;7.60;99.90
37410;DHT22;23275;48.914;12.566;2023-04-28T00:34:33;7.60;99.90
37410;DHT22;23275;48.914;12.566;2023-04-28T00:37:02;7.60;99.90
37410;DHT22;23275;48.914;12.566;2023-04-28T00:39:28;7.60;99.90
37410;DHT22;23275;48.914;12.566;2023-04-28T00:41:54;7.60;99.90
37410;DHT22;23275;48.914;12.566;2023-04-28T00:44:19;7.60;99.90
37410;DHT22;23275;48.914;12.566;2023-04-28T00:46:46;7.60;99.90
37410;DHT22;23275;48.914;12.566;2023-04-28T00:49:12;7.60;99.90
37410;DHT22;23275;48.914;12.566;2023-04-28T00:51:39;7.60;99.90
37410;DHT22;23275;48.914;12.566;2023-04-28T00:54:05;7.60;99.90
37410;DHT22;23275;48.914;12.566;2023-04-28T00:56:32;7.60;99.90
37410;DHT22;23275;48.914;12.566;2023-04-28T00:58:58;7.60;99.90
37410;DHT22;23275;48.914;12.566;2023-04-28T01:01:23;7.70;99.90
37410;DHT22;23275;48.914;12.566;2023-04-28T01:03:49;7.70;99.90
37410;DHT22;23275;48.914;12.566;2023-04-28T01:06:15;7.70;99.90
37410;DHT22;23275;48.914;12.566;2023-04-28T01:08:41;7.60;99.90
37410;DHT22;23275;48.914;12.566;2023-04-28T01:11:08;7.60;99.90
37410;DHT22;23275;48.914;12.566;2023-04-28T01:13:38;7.60;99.90
37410;DHT22;23275;48.914;12.566;2023-04-28T01:16:04;7.60;99.90
37410;DHT22;23275;48.914;12.566;2023-04-28T01:18:30;7.60;99.90
37410;DHT22;23275;48.914;12.566;2023-04-28T01:20:56;7.60;99.90
37410;DHT22;23275;48.914;12.566;2023-04-28T01:23:22;7.60;99.90
37410;DHT22;23275;48.914;12.566;2023-04-28T01:25:48;7.60;99.90
37410;DHT22;23275;48.914;12.566;2023-04-28T01:28:13;7.60;99.90
37410;DHT22;23275;48.914;12.566;2023-04-28T01:30:39;7.70;99.90
37410;DHT22;23275;48.914;12.566;2023-04-28T01:33:04;7.60;99.90
37410;DHT22;23275;48.914;12.566;2023-04-28T01:35:30;7.70;99.90
37410;DHT22;23275;48.914;12.566;2023-04-28T01:37:56;7.60;99.90
37410;DHT22;23275;48.914;12.566;2023-04-28T01:40:21;7.60;99.90
37410;DHT22;23275;48.914;12.566;2023-04-28T01:42:47;7.50;99.90
37410;DHT22;23275;48.914;12.566;2023-04-28T01:45:12;7.50;99.90
37410;DHT22;23275;48.914;12.566;2023-04-28T01:47:38;7.60;99.90
37410;DHT22;23275;48.914;12.566;2023-04-28T01:50:04;7.60;99.90
37410;DHT22;23275;48.914;12.566;2023-04-28T01:52:30;7.60;99.90
37410;DHT22;23275;48.914;12.566;2023-04-28T01:54:55;7.60;99.90
37410;DHT22;23275;48.914;12.566;2023-04-28T01:57:21;7.60;99.90
37410;DHT22;23275;48.914;12.566;2023-04-28T01:59:47;7.60;99.90
37410;DHT22;23275;48.914;12.566;2023-04-28T02:02:12;7.60;99.90
37410;DHT22;23275;48.914;12.566;2023-04-28T02:04:38;7.50;99.90
37410;DHT22;23275;48.914;12.566;2023-04-28T02:07:04;7.50;99.90
37410;DHT22;23275;48.914;12.566;2023-04-28T02:09:30;7.50;99.90
37410;DHT22;23275;48.914;12.566;2023-04-28T02:11:56;7.40;99.90
37410;DHT22;23275;48.914;12.566;2023-04-28T02:14:22;7.40;99.90
37410;DHT22;23275;48.914;12.566;2023-04-28T02:16:48;7.40;99.90
37410;DHT22;23275;48.914;12.566;2023-04-28T02:19:14;7.40;99.90
37410;DHT22;23275;48.914;12.566;2023-04-28T02:21:41;7.40;99.90
37410;DHT22;23275;48.914;12.566;2023-04-28T02:24:07;7.50;99.90
37410;DHT22;23275;48.914;12.566;2023-04-28T02:26:33;7.50;99.90
37410;DHT22;23275;48.914;12.566;2023-04-28T02:28:58;7.50;99.90
37410;DHT22;23275;48.914;12.566;2023-04-28T02:31:24;7.50;99.90
37410;DHT22;23275;48.914;12.566;2023-04-28T02:33:50;7.50;99.90
37410;DHT22;23275;48.914;12.566;2023-04-28T02:36:16;7.50;99.90
37410;DHT22;23275;48.914;12.566;2023-04-28T02:38:41;7.50;99.90
37410;DHT22;23275;48.914;12.566;2023-04-28T02:41:07;7.50;99.90
37410;DHT22;23275;48.914;12.566;2023-04-28T02:43:34;7.50;99.90
37410;DHT22;23275;48.914;12.566;2023-04-28T02:46:02;7.50;99.90
37410;DHT22;23275;48.914;12.566;2023-04-28T02:48:28;7.50;99.90
37410;DHT22;23275;48.914;12.566;2023-04-28T02:50:54;7.50;99.90
37410;DHT22;23275;48.914;12.566;2023-04-28T02:53:20;7.50;99.90
37410;DHT22;23275;48.914;12.566;2023-04-28T02:55:46;7.40;99.90
37410;DHT22;23275;48.914;12.566;2023-04-28T02:58:11;7.30;99.90
37410;DHT22;23275;48.914;12.566;2023-04-28T03:00:37;7.20;99.90
37410;DHT22;23275;48.914;12.566;2023-04-28T03:03:03;7.10;99.90
37410;DHT22;23275;48.914;12.566;2023-04-28T03:05:28;7.10;99.90
37410;DHT22;23275;48.914;12.566;2023-04-28T03:07:54;7.10;99.90
37410;DHT22;23275;48.914;12.566;2023-04-28T03:10:20;7.20;99.90
37410;DHT22;23275;48.914;12.566;2023-04-28T03:12:45;7.20;99.90
37410;DHT22;23275;48.914;12.566;2023-04-28T03:15:11;7.20;99.90
37410;DHT22;23275;48.914;12.566;2023-04-28T03:17:37;7.30;99.90
37410;DHT22;23275;48.914;12.566;2023-04-28T03:20:06;7.30;99.90
37410;DHT22;23275;48.914;12.566;2023-04-28T03:22:32;7.40;99.90
37410;DHT22;23275;48.914;12.566;2023-04-28T03:24:58;7.40;99.90
37410;DHT22;23275;48.914;12.566;2023-04-28T03:27:24;7.40;99.90
37410;DHT22;23275;48.914;12.566;2023-04-28T03:29:49;7.40;99.90
37410;DHT22;23275;48.914;12.566;2023-04-28T03:32:15;7.50;99.90
37410;DHT22;23275;48.914;12.566;2023-04-28T03:34:40;7.50;99.90
37410;DHT22;23275;48.914;12.566;2023-04-28T03:37:06;7.50;99.90
37410;DHT22;23275;48.914;12.566;2023-04-28T03:39:32;7.50;99.90
37410;DHT22;23275;48.914;12.566;2023-04-28T03:41:57;7.40;99.90
37410;DHT22;23275;48.914;12.566;2023-04-28T03:44:23;7.40;99.90
37410;DHT22;23275;48.914;12.566;2023-04-28T03:46:49;7.40;99.90
37410;DHT22;23275;48.914;12.566;2023-04-28T03:49:15;7.40;99.90
37410;DHT22;23275;48.914;12.566;2023-04-28T03:51:41;7.50;99.90
37410;DHT22;23275;48.914;12.566;2023-04-28T03:54:06;7.50;99.90
37410;DHT22;23275;48.914;12.566;2023-04-28T03:56:32;7.50;99.90
37410;DHT22;23275;48.914;12.566;2023-04-28T03:58:58;7.50;99.90
37410;DHT22;23275;48.914;12.566;2023-04-28T04:01:24;7.50;99.90
37410;DHT22;23275;48.914;12.566;2023-04-28T04:03:49;7.50;99.90
37410;DHT22;23275;48.914;12.566;2023-04-28T04:06:15;7.50;99.90
37410;DHT22;23275;48.914;12.566;2023-04-28T04:08:41;7.60;99.90
37410;DHT22;23275;48.914;12.566;2023-04-28T04:11:07;7.60;99.90
37410;DHT22;23275;48.914;12.566;2023-04-28T04:13:32;7.60;99.90
37410;DHT22;23275;48.914;12.566;2023-04-28T04:15:58;7.70;99.90
37410;DHT22;23275;48.914;12.566;2023-04-28T04:18:23;7.70;99.90
37410;DHT22;23275;48.914;12.566;2023-04-28T04:20:49;7.70;99.90
37410;DHT22;23275;48.914;12.566;2023-04-28T04:23:15;7.70;99.90
37410;DHT22;23275;48.914;12.566;2023-04-28T04:25:41;7.70;99.90
37410;DHT22;23275;48.914;12.566;2023-04-28T04:28:07;7.70;99.90
37410;DHT22;23275;48.914;12.566;2023-04-28T04:30:32;7.70;99.90
37410;DHT22;23275;48.914;12.566;2023-04-28T04:32:58;7.70;99.90
37410;DHT22;23275;48.914;12.566;2023-04-28T04:35:24;7.70;99.90
37410;DHT22;23275;48.914;12.566;2023-04-28T04:37:49;7.80;99.90
37410;DHT22;23275;48.914;12.566;2023-04-28T04:40:15;7.90;99.90
37410;DHT22;23275;48.914;12.566;2023-04-28T04:42:41;7.90;99.90
37410;DHT22;23275;48.914;12.566;2023-04-28T04:45:07;8.00;99.90
37410;DHT22;23275;48.914;12.566;2023-04-28T04:47:33;8.10;99.90
37410;DHT22;23275;48.914;12.566;2023-04-28T04:49:58;8.10;99.90
37410;DHT22;23275;48.914;12.566;2023-04-28T04:52:24;8.20;99.90
37410;DHT22;23275;48.914;12.566;2023-04-28T04:54:50;8.20;99.90
37410;DHT22;23275;48.914;12.566;2023-04-28T04:57:15;8.20;99.90
37410;DHT22;23275;48.914;12.566;2023-04-28T04:59:41;8.20;99.90
37410;DHT22;23275;48.914;12.566;2023-04-28T05:02:07;8.30;99.90
37410;DHT22;23275;48.914;12.566;2023-04-28T05:04:32;8.30;99.90
37410;DHT22;23275;48.914;12.566;2023-04-28T05:06:58;8.30;99.90
37410;DHT22;23275;48.914;12.566;2023-04-28T05:09:23;8.30;99.90
37410;DHT22;23275;48.914;12.566;2023-04-28T05:11:49;8.20;99.90
37410;DHT22;23275;48.914;12.566;2023-04-28T05:14:15;8.20;99.90
37410;DHT22;23275;48.914;12.566;2023-04-28T05:16:41;8.20;99.90
37410;DHT22;23275;48.914;12.566;2023-04-28T05:19:07;8.20;99.90
37410;DHT22;23275;48.914;12.566;2023-04-28T05:21:32;8.30;99.90
37410;DHT22;23275;48.914;12.566;2023-04-28T05:23:58;8.40;99.90
37410;DHT22;23275;48.914;12.566;2023-04-28T05:26:24;8.50;99.90
37410;DHT22;23275;48.914;12.566;2023-04-28T05:28:49;8.60;99.90
37410;DHT22;23275;48.914;12.566;2023-04-28T05:31:16;8.80;99.90
37410;DHT22;23275;48.914;12.566;2023-04-28T05:33:41;8.80;99.90
37410;DHT22;23275;48.914;12.566;2023-04-28T05:36:07;8.90;99.90
37410;DHT22;23275;48.914;12.566;2023-04-28T05:38:34;8.90;99.90
37410;DHT22;23275;48.914;12.566;2023-04-28T05:41:01;8.90;99.90
37410;DHT22;23275;48.914;12.566;2023-04-28T05:43:26;8.90;99.90
37410;DHT22;23275;48.914;12.566;2023-04-28T05:45:52;8.90;99.90
37410;DHT22;23275;48.914;12.566;2023-04-28T05:48:18;9.00;99.90
37410;DHT22;23275;48.914;12.566;2023-04-28T05:50:43;9.10;99.90
37410;DHT22;23275;48.914;12.566;2023-04-28T05:53:09;9.20;99.90
37410;DHT22;23275;48.914;12.566;2023-04-28T05:55:35;9.30;99.90
37410;DHT22;23275;48.914;12.566;2023-04-28T05:58:04;9.40;99.90
37410;DHT22;23275;48.914;12.566;2023-04-28T06:00:30;9.50;99.90
37410;DHT22;23275;48.914;12.566;2023-04-28T06:02:55;9.60;99.90
37410;DHT22;23275;48.914;12.566;2023-04-28T06:05:21;9.70;99.90
37410;DHT22;23275;48.914;12.566;2023-04-28T06:07:47;9.80;99.90
37410;DHT22;23275;48.914;12.566;2023-04-28T06:10:13;9.90;99.90
37410;DHT22;23275;48.914;12.566;2023-04-28T06:12:38;9.90;99.90
37410;DHT22;23275;48.914;12.566;2023-04-28T06:15:04;9.80;99.90
37410;DHT22;23275;48.914;12.566;2023-04-28T06:17:30;9.80;99.90
37410;DHT22;23275;48.914;12.566;2023-04-28T06:19:57;9.70;99.90
37410;DHT22;23275;48.914;12.566;2023-04-28T06:22:26;9.60;99.90
37410;DHT22;23275;48.914;12.566;2023-04-28T06:24:52;9.60;99.90
37410;DHT22;23275;48.914;12.566;2023-04-28T06:27:18;9.60;99.90
37410;DHT22;23275;48.914;12.566;2023-04-28T06:29:43;9.60;99.90
37410;DHT22;23275;48.914;12.566;2023-04-28T06:32:09;9.70;99.90
37410;DHT22;23275;48.914;12.566;2023-04-28T06:34:35;9.80;99.90
37410;DHT22;23275;48.914;12.566;2023-04-28T06:37:01;9.90;99.90
37410;DHT22;23275;48.914;12.566;2023-04-28T06:39:27;9.90;99.90
37410;DHT22;23275;48.914;12.566;2023-04-28T06:41:53;9.90;99.90
37410;DHT22;23275;48.914;12.566;2023-04-28T06:44:18;9.90;99.90
37410;DHT22;23275;48.914;12.566;2023-04-28T06:46:44;9.80;99.90
37410;DHT22;23275;48.914;12.566;2023-04-28T06:49:09;9.80;99.90
37410;DHT22;23275;48.914;12.566;2023-04-28T06:51:35;9.70;99.90
37410;DHT22;23275;48.914;12.566;2023-04-28T06:54:01;9.60;99.90
37410;DHT22;23275;48.914;12.566;2023-04-28T06:56:26;9.70;99.90
37410;DHT22;23275;48.914;12.566;2023-04-28T06:58:54;9.70;99.90
37410;DHT22;23275;48.914;12.566;2023-04-28T07:01:20;9.70;99.90
37410;DHT22;23275;48.914;12.566;2023-04-28T07:03:46;9.70;99.90
37410;DHT22;23275;48.914;12.566;2023-04-28T07:06:12;9.80;99.90
37410;DHT22;23275;48.914;12.566;2023-04-28T07:08:38;9.80;99.90
37410;DHT22;23275;48.914;12.566;2023-04-28T07:11:04;9.90;99.90
37410;DHT22;23275;48.914;12.566;2023-04-28T07:13:30;9.90;99.90
37410;DHT22;23275;48.914;12.566;2023-04-28T07:15:56;10.00;99.90
37410;DHT22;23275;48.914;12.566;2023-04-28T07:18:22;9.90;99.90
37410;DHT22;23275;48.914;12.566;2023-04-28T07:20:48;9.90;99.90
37410;DHT22;23275;48.914;12.566;2023-04-28T07:23:14;9.90;99.90
37410;DHT22;23275;48.914;12.566;2023-04-28T07:25:39;9.90;99.90
37410;DHT22;23275;48.914;12.566;2023-04-28T07:28:06;9.90;99.90
37410;DHT22;23275;48.914;12.566;2023-04-28T07:30:32;9.90;99.90
37410;DHT22;23275;48.914;12.566;2023-04-28T07:32:58;10.00;99.90
37410;DHT22;23275;48.914;12.566;2023-04-28T07:35:24;9.90;99.90
37410;DHT22;23275;48.914;12.566;2023-04-28T07:37:50;9.90;99.90
37410;DHT22;23275;48.914;12.566;2023-04-28T07:40:16;9.90;99.90
37410;DHT22;23275;48.914;12.566;2023-04-28T07:42:42;10.00;99.90
37410;DHT22;23275;48.914;12.566;2023-04-28T07:45:08;10.00;99.90
37410;DHT22;23275;48.914;12.566;2023-04-28T07:47:34;10.10;99.90
37410;DHT22;23275;48.914;12.566;2023-04-28T07:50:00;10.20;99.90
37410;DHT22;23275;48.914;12.566;2023-04-28T07:52:29;10.40;99.90
37410;DHT22;23275;48.914;12.566;2023-04-28T07:54:56;10.50;99.90
37410;DHT22;23275;48.914;12.566;2023-04-28T07:57:21;10.60;99.90
37410;DHT22;23275;48.914;12.566;2023-04-28T07:59:47;10.70;99.90
37410;DHT22;23275;48.914;12.566;2023-04-28T08:02:12;10.80;99.90
37410;DHT22;23275;48.914;12.566;2023-04-28T08:04:39;10.90;99.90
37410;DHT22;23275;48.914;12.566;2023-04-28T08:07:05;11.00;99.90
37410;DHT22;23275;48.914;12.566;2023-04-28T08:09:31;11.10;99.90
37410;DHT22;23275;48.914;12.566;2023-04-28T08:11:56;11.00;99.90
37410;DHT22;23275;48.914;12.566;2023-04-28T08:14:23;11.00;99.90
37410;DHT22;23275;48.914;12.566;2023-04-28T08:16:49;11.10;99.90
37410;DHT22;23275;48.914;12.566;2023-04-28T08:19:14;11.20;99.90
37410;DHT22;23275;48.914;12.566;2023-04-28T08:21:40;11.40;99.90
37410;DHT22;23275;48.914;12.566;2023-04-28T08:24:05;11.50;99.90
37410;DHT22;23275;48.914;12.566;2023-04-28T08:26:32;11.50;99.90
37410;DHT22;23275;48.914;12.566;2023-04-28T08:28:58;11.50;99.90
37410;DHT22;23275;48.914;12.566;2023-04-28T08:31:24;11.20;99.90
37410;DHT22;23275;48.914;12.566;2023-04-28T08:33:49;11.00;99.90
37410;DHT22;23275;48.914;12.566;2023-04-28T08:36:16;10.90;99.90
37410;DHT22;23275;48.914;12.566;2023-04-28T08:38:42;11.00;99.90
37410;DHT22;23275;48.914;12.566;2023-04-28T08:41:09;11.00;99.90
37410;DHT22;23275;48.914;12.566;2023-04-28T08:43:36;11.00;99.90
37410;DHT22;23275;48.914;12.566;2023-04-28T08:46:06;11.00;99.90
37410;DHT22;23275;48.914;12.566;2023-04-28T08:48:42;11.00;99.90
37410;DHT22;23275;48.914;12.566;2023-04-28T08:51:13;11.10;99.90
37410;DHT22;23275;48.914;12.566;2023-04-28T08:53:44;11.20;99.90
37410;DHT22;23275;48.914;12.566;2023-04-28T08:56:14;11.10;99.90
37410;DHT22;23275;48.914;12.566;2023-04-28T08:58:41;11.30;99.90
37410;DHT22;23275;48.914;12.566;2023-04-28T09:01:07;11.50;99.90
37410;DHT22;23275;48.914;12.566;2023-04-28T09:03:33;11.50;99.90
37410;DHT22;23275;48.914;12.566;2023-04-28T09:06:00;11.50;99.90
37410;DHT22;23275;48.914;12.566;2023-04-28T09:08:26;11.40;99.90
37410;DHT22;23275;48.914;12.566;2023-04-28T09:11:09;11.40;99.90
37410;DHT22;23275;48.914;12.566;2023-04-28T09:13:35;11.50;99.90
37410;DHT22;23275;48.914;12.566;2023-04-28T09:16:02;11.60;99.90
37410;DHT22;23275;48.914;12.566;2023-04-28T09:18:28;11.70;99.90
37410;DHT22;23275;48.914;12.566;2023-04-28T09:21:03;11.70;99.90
37410;DHT22;23275;48.914;12.566;2023-04-28T09:23:29;11.70;99.90
37410;DHT22;23275;48.914;12.566;2023-04-28T09:26:00;11.60;99.90
37410;DHT22;23275;48.914;12.566;2023-04-28T09:28:25;11.50;99.90
37410;DHT22;23275;48.914;12.566;2023-04-28T09:30:51;11.50;99.90
37410;DHT22;23275;48.914;12.566;2023-04-28T09:33:17;11.50;99.90
37410;DHT22;23275;48.914;12.566;2023-04-28T09:35:43;11.60;99.90
37410;DHT22;23275;48.914;12.566;2023-04-28T09:38:10;11.70;99.90
37410;DHT22;23275;48.914;12.566;2023-04-28T09:41:02;11.70;99.90
37410;DHT22;23275;48.914;12.566;2023-04-28T09:43:32;11.60;99.90
37410;DHT22;23275;48.914;12.566;2023-04-28T09:45:59;11.60;99.90
37410;DHT22;23275;48.914;12.566;2023-04-28T09:48:35;11.70;99.90
37410;DHT22;23275;48.914;12.566;2023-04-28T09:51:04;11.60;99.90
37410;DHT22;23275;48.914;12.566;2023-04-28T09:53:31;11.60;99.90
37410;DHT22;23275;48.914;12.566;2023-04-28T09:55:58;11.60;99.90
37410;DHT22;23275;48.914;12.566;2023-04-28T09:58:25;11.40;99.90
37410;DHT22;23275;48.914;12.566;2023-04-28T10:00:56;11.40;99.90
37410;DHT22;23275;48.914;12.566;2023-04-28T10:03:23;11.40;99.90
37410;DHT22;23275;48.914;12.566;2023-04-28T10:05:49;11.40;99.90
37410;DHT22;23275;48.914;12.566;2023-04-28T10:08:20;11.30;99.90
37410;DHT22;23275;48.914;12.566;2023-04-28T10:10:48;11.30;99.90
37410;DHT22;23275;48.914;12.566;2023-04-28T10:13:15;11.40;99.90
37410;DHT22;23275;48.914;12.566;2023-04-28T10:15:41;11.40;99.90
37410;DHT22;23275;48.914;12.566;2023-04-28T10:18:07;11.30;99.90
37410;DHT22;23275;48.914;12.566;2023-04-28T10:20:34;11.30;99.90
37410;DHT22;23275;48.914;12.566;2023-04-28T10:25:59;11.20;99.90
37410;DHT22;23275;48.914;12.566;2023-04-28T10:28:26;11.30;99.90
37410;DHT22;23275;48.914;12.566;2023-04-28T10:31:10;11.30;99.90
37410;DHT22;23275;48.914;12.566;2023-04-28T10:33:37;11.30;99.90
37410;DHT22;23275;48.914;12.566;2023-04-28T10:36:03;11.30;99.90
37410;DHT22;23275;48.914;12.566;2023-04-28T10:38:29;11.30;99.90
37410;DHT22;23275;48.914;12.566;2023-04-28T10:40:55;11.30;99.90
37410;DHT22;23275;48.914;12.566;2023-04-28T10:56:17;11.00;99.90
37410;DHT22;23275;48.914;12.566;2023-04-28T10:58:47;11.00;99.90
37410;DHT22;23275;48.914;12.566;2023-04-28T11:01:26;10.90;99.90
37410;DHT22;23275;48.914;12.566;2023-04-28T11:03:55;10.80;99.90
37410;DHT22;23275;48.914;12.566;2023-04-28T11:06:31;10.70;99.90
37410;DHT22;23275;48.914;12.566;2023-04-28T11:16:56;10.50;99.90
37410;DHT22;23275;48.914;12.566;2023-04-28T11:19:42;10.50;99.90
37410;DHT22;23275;48.914;12.566;2023-04-28T11:22:19;10.40;99.90
37410;DHT22;23275;48.914;12.566;2023-04-28T11:24:59;10.30;99.90
37410;DHT22;23275;48.914;12.566;2023-04-28T11:27:26;10.30;99.90
37410;DHT22;23275;48.914;12.566;2023-04-28T11:29:52;10.30;99.90
37410;DHT22;23275;48.914;12.566;2023-04-28T11:32:29;10.30;99.90
37410;DHT22;23275;48.914;12.566;2023-04-28T11:34:55;10.40;99.90
37410;DHT22;23275;48.914;12.566;2023-04-28T11:37:20;10.50;99.90
37410;DHT22;23275;48.914;12.566;2023-04-28T11:39:47;10.60;99.90
37410;DHT22;23275;48.914;12.566;2023-04-28T11:42:13;10.60;99.90
37410;DHT22;23275;48.914;12.566;2023-04-28T11:44:38;10.60;99.90
37410;DHT22;23275;48.914;12.566;2023-04-28T11:47:05;10.60;99.90
37410;DHT22;23275;48.914;12.566;2023-04-28T11:49:44;10.60;99.90
37410;DHT22;23275;48.914;12.566;2023-04-28T11:52:10;10.60;99.90
37410;DHT22;23275;48.914;12.566;2023-04-28T11:54:37;10.80;99.90
37410;DHT22;23275;48.914;12.566;2023-04-28T11:57:03;10.80;99.90
37410;DHT22;23275;48.914;12.566;2023-04-28T11:59:31;10.80;99.90
37410;DHT22;23275;48.914;12.566;2023-04-28T12:02:00;10.80;99.90
37410;DHT22;23275;48.914;12.566;2023-04-28T12:07:15;11.00;99.90
37410;DHT22;23275;48.914;12.566;2023-04-28T12:09:47;11.10;99.90
37410;DHT22;23275;48.914;12.566;2023-04-28T12:12:14;11.10;99.90
37410;DHT22;23275;48.914;12.566;2023-04-28T12:14:57;11.10;99.90
37410;DHT22;23275;48.914;12.566;2023-04-28T12:17:24;11.00;99.90
37410;DHT22;23275;48.914;12.566;2023-04-28T12:19:51;11.00;99.90
37410;DHT22;23275;48.914;12.566;2023-04-28T12:22:16;10.90;99.90
37410;DHT22;23275;48.914;12.566;2023-04-28T12:24:42;10.80;99.90
37410;DHT22;23275;48.914;12.566;2023-04-28T12:29:41;10.60;99.90
37410;DHT22;23275;48.914;12.566;2023-04-28T12:32:09;10.60;99.90
37410;DHT22;23275;48.914;12.566;2023-04-28T12:34:37;10.60;99.90
37410;DHT22;23275;48.914;12.566;2023-04-28T12:37:04;10.70;99.90
37410;DHT22;23275;48.914;12.566;2023-04-28T12:39:39;10.70;99.90
37410;DHT22;23275;48.914;12.566;2023-04-28T12:42:05;10.70;99.90
37410;DHT22;23275;48.914;12.566;2023-04-28T12:44:35;10.80;99.90
37410;DHT22;23275;48.914;12.566;2023-04-28T12:47:02;10.80;99.90
37410;DHT22;23275;48.914;12.566;2023-04-28T12:49:28;10.90;99.90
37410;DHT22;23275;48.914;12.566;2023-04-28T12:51:53;11.00;99.90
37410;DHT22;23275;48.914;12.566;2023-04-28T12:54:19;11.00;99.90
37410;DHT22;23275;48.914;12.566;2023-04-28T12:56:45;11.00;99.90
37410;DHT22;23275;48.914;12.566;2023-04-28T12:59:10;11.00;99.90
37410;DHT22;23275;48.914;12.566;2023-04-28T13:01:36;11.10;99.90
37410;DHT22;23275;48.914;12.566;2023-04-28T13:04:01;11.10;99.90
37410;DHT22;23275;48.914;12.566;2023-04-28T13:06:27;11.00;99.90
37410;DHT22;23275;48.914;12.566;2023-04-28T13:08:53;10.90;99.90
37410;DHT22;23275;48.914;12.566;2023-04-28T13:11:19;10.90;99.90
37410;DHT22;23275;48.914;12.566;2023-04-28T13:13:45;10.80;99.90
37410;DHT22;23275;48.914;12.566;2023-04-28T13:16:11;10.80;99.90
37410;DHT22;23275;48.914;12.566;2023-04-28T13:18:38;10.80;99.90
37410;DHT22;23275;48.914;12.566;2023-04-28T13:21:04;10.70;99.90
37410;DHT22;23275;48.914;12.566;2023-04-28T13:23:30;10.70;99.90
37410;DHT22;23275;48.914;12.566;2023-04-28T13:25:55;10.70;99.90
37410;DHT22;23275;48.914;12.566;2023-04-28T13:28:21;10.70;99.90
37410;DHT22;23275;48.914;12.566;2023-04-28T13:30:47;10.70;99.90
37410;DHT22;23275;48.914;12.566;2023-04-28T13:33:12;10.70;99.90
37410;DHT22;23275;48.914;12.566;2023-04-28T13:35:38;10.80;99.90
37410;DHT22;23275;48.914;12.566;2023-04-28T13:38:03;10.80;99.90
37410;DHT22;23275;48.914;12.566;2023-04-28T13:40:29;10.90;99.90
37410;DHT22;23275;48.914;12.566;2023-04-28T13:42:55;11.00;99.90
37410;DHT22;23275;48.914;12.566;2023-04-28T13:45:21;10.90;99.90
37410;DHT22;23275;48.914;12.566;2023-04-28T13:47:47;11.00;99.90
37410;DHT22;23275;48.914;12.566;2023-04-28T13:50:13;11.00;99.90
37410;DHT22;23275;48.914;12.566;2023-04-28T13:52:39;11.00;99.90
37410;DHT22;23275;48.914;12.566;2023-04-28T13:55:04;11.00;99.90
37410;DHT22;23275;48.914;12.566;2023-04-28T13:57:30;11.00;99.90
37410;DHT22;23275;48.914;12.566;2023-04-28T13:59:56;11.10;99.90
37410;DHT22;23275;48.914;12.566;2023-04-28T14:02:21;11.10;99.90
37410;DHT22;23275;48.914;12.566;2023-04-28T14:04:47;11.10;99.90
37410;DHT22;23275;48.914;12.566;2023-04-28T14:07:15;11.10;99.90
37410;DHT22;23275;48.914;12.566;2023-04-28T14:09:41;11.10;99.90
37410;DHT22;23275;48.914;12.566;2023-04-28T14:12:06;11.00;99.90
37410;DHT22;23275;48.914;12.566;2023-04-28T14:14:33;11.00;99.90
37410;DHT22;23275;48.914;12.566;2023-04-28T14:16:58;11.00;99.90
37410;DHT22;23275;48.914;12.566;2023-04-28T14:19:24;11.10;99.90
37410;DHT22;23275;48.914;12.566;2023-04-28T14:21:51;11.20;99.90
37410;DHT22;23275;48.914;12.566;2023-04-28T14:24:17;11.20;99.90
37410;DHT22;23275;48.914;12.566;2023-04-28T14:26:44;11.20;99.90
37410;DHT22;23275;48.914;12.566;2023-04-28T14:29:10;11.30;99.90
37410;DHT22;23275;48.914;12.566;2023-04-28T14:31:36;11.30;99.90
37410;DHT22;23275;48.914;12.566;2023-04-28T14:34:02;11.20;99.90
37410;DHT22;23275;48.914;12.566;2023-04-28T14:36:30;11.10;99.90
37410;DHT22;23275;48.914;12.566;2023-04-28T14:38:57;11.00;99.90
37410;DHT22;23275;48.914;12.566;2023-04-28T14:41:23;11.00;99.90
37410;DHT22;23275;48.914;12.566;2023-04-28T14:43:49;10.90;99.90
37410;DHT22;23275;48.914;12.566;2023-04-28T14:46:14;10.90;99.90
37410;DHT22;23275;48.914;12.566;2023-04-28T14:48:42;10.90;99.90
37410;DHT22;23275;48.914;12.566;2023-04-28T14:51:08;10.90;99.90
37410;DHT22;23275;48.914;12.566;2023-04-28T14:53:34;11.00;99.90
37410;DHT22;23275;48.914;12.566;2023-04-28T14:56:00;11.00;99.90
37410;DHT22;23275;48.914;12.566;2023-04-28T14:58:25;11.00;99.90
37410;DHT22;23275;48.914;12.566;2023-04-28T15:00:51;11.10;99.90
37410;DHT22;23275;48.914;12.566;2023-04-28T15:03:17;11.10;99.90
37410;DHT22;23275;48.914;12.566;2023-04-28T15:05:43;11.10;99.90
37410;DHT22;23275;48.914;12.566;2023-04-28T15:08:09;11.10;99.90
37410;DHT22;23275;48.914;12.566;2023-04-28T15:10:39;11.20;99.90
37410;DHT22;23275;48.914;12.566;2023-04-28T15:13:06;11.10;99.90
37410;DHT22;23275;48.914;12.566;2023-04-28T15:15:31;11.10;99.90
37410;DHT22;23275;48.914;12.566;2023-04-28T15:17:57;11.10;99.90
37410;DHT22;23275;48.914;12.566;2023-04-28T15:20:26;11.10;99.90
37410;DHT22;23275;48.914;12.566;2023-04-28T15:22:54;11.10;99.90
37410;DHT22;23275;48.914;12.566;2023-04-28T15:25:20;11.10;99.90
37410;DHT22;23275;48.914;12.566;2023-04-28T15:27:46;11.10;99.90
37410;DHT22;23275;48.914;12.566;2023-04-28T15:30:12;11.10;99.90
37410;DHT22;23275;48.914;12.566;2023-04-28T15:32:38;11.20;99.90
37410;DHT22;23275;48.914;12.566;2023-04-28T15:35:04;11.10;99.90
37410;DHT22;23275;48.914;12.566;2023-04-28T15:37:43;11.20;99.90
37410;DHT22;23275;48.914;12.566;2023-04-28T15:40:13;11.10;99.90
37410;DHT22;23275;48.914;12.566;2023-04-28T15:42:43;11.10;99.90
37410;DHT22;23275;48.914;12.566;2023-04-28T15:45:18;11.20;99.90
37410;DHT22;23275;48.914;12.566;2023-04-28T15:47:46;11.20;99.90